createdAt,value
2018-08-17T00:00:35.858Z,21.02
2018-08-17T00:02:48.067Z,20.83
2018-08-17T00:05:00.326Z,20.76
2018-08-17T00:07:12.542Z,20.76
2018-08-17T00:09:24.735Z,20.74
2018-08-17T00:11:37.014Z,20.74
2018-08-17T00:13:49.190Z,20.62
2018-08-17T00:16:01.451Z,20.53
2018-08-17T00:18:13.649Z,20.51
2018-08-17T00:20:26.150Z,20.40
2018-08-17T00:22:38.361Z,20.34
2018-08-17T00:24:50.544Z,20.30
2018-08-17T00:27:02.762Z,20.30
2018-08-17T00:29:14.973Z,20.25
2018-08-17T00:31:27.173Z,20.26
2018-08-17T00:33:39.387Z,20.18
2018-08-17T00:35:51.582Z,20.17
2018-08-17T00:38:04.167Z,20.12
2018-08-17T00:40:16.411Z,20.03
2018-08-17T00:42:28.602Z,19.96
2018-08-17T00:44:40.807Z,19.87
2018-08-17T00:46:53.054Z,19.75
2018-08-17T00:49:05.642Z,19.63
2018-08-17T00:51:17.809Z,19.65
2018-08-17T00:53:30.092Z,19.60
2018-08-17T00:55:42.327Z,19.62
2018-08-17T00:57:54.507Z,19.58
2018-08-17T01:00:06.762Z,19.55
2018-08-17T01:02:18.973Z,19.55
2018-08-17T01:04:31.182Z,19.55
2018-08-17T01:06:43.386Z,19.50
2018-08-17T01:08:55.554Z,19.49
2018-08-17T01:11:07.828Z,19.45
2018-08-17T01:13:20.058Z,19.38
2018-08-17T01:15:32.250Z,19.34
2018-08-17T01:17:44.463Z,19.30
2018-08-17T01:19:56.778Z,19.29
2018-08-17T01:22:09.031Z,19.28
2018-08-17T01:24:21.298Z,19.27
2018-08-17T01:26:33.463Z,19.27
2018-08-17T01:28:45.659Z,19.20
2018-08-17T01:30:57.832Z,19.24
2018-08-17T01:33:10.055Z,19.19
2018-08-17T01:35:22.207Z,19.19
2018-08-17T01:37:34.402Z,19.18
2018-08-17T01:39:46.653Z,19.12
2018-08-17T01:41:58.848Z,19.09
2018-08-17T01:44:10.986Z,19.08
2018-08-17T01:46:23.185Z,19.06
2018-08-17T01:48:35.369Z,19.05
2018-08-17T01:50:48.407Z,18.98
2018-08-17T01:53:00.611Z,18.91
2018-08-17T01:55:12.806Z,18.86
2018-08-17T01:57:25.085Z,18.85
2018-08-17T01:59:37.287Z,18.86
2018-08-17T02:01:49.482Z,18.84
2018-08-17T02:04:01.681Z,18.85
2018-08-17T02:06:13.874Z,18.82
2018-08-17T02:08:26.075Z,18.77
2018-08-17T02:10:38.283Z,18.75
2018-08-17T02:12:50.482Z,18.69
2018-08-17T02:15:02.733Z,18.64
2018-08-17T02:17:14.911Z,18.64
2018-08-17T02:19:27.070Z,18.58
2018-08-17T02:21:39.421Z,18.56
2018-08-17T02:23:51.595Z,18.55
2018-08-17T02:26:03.829Z,18.56
2018-08-17T02:28:16.031Z,18.61
2018-08-17T02:30:28.274Z,18.59
2018-08-17T02:32:40.435Z,18.53
2018-08-17T02:34:52.688Z,18.51
2018-08-17T02:37:04.947Z,18.50
2018-08-17T02:39:18.123Z,18.48
2018-08-17T02:41:30.310Z,18.42
2018-08-17T02:43:42.451Z,18.37
2018-08-17T02:45:54.607Z,18.36
2018-08-17T02:48:06.835Z,18.38
2018-08-17T02:50:19.091Z,18.36
2018-08-17T02:52:31.282Z,18.31
2018-08-17T02:54:43.458Z,18.26
2018-08-17T02:56:55.711Z,18.28
2018-08-17T02:59:07.906Z,18.30
2018-08-17T03:01:20.066Z,18.28
2018-08-17T03:03:32.291Z,18.19
2018-08-17T03:05:44.454Z,18.17
2018-08-17T03:07:56.667Z,18.14
2018-08-17T03:10:08.878Z,18.09
2018-08-17T03:12:22.072Z,18.07
2018-08-17T03:14:34.252Z,18.01
2018-08-17T03:16:46.488Z,18.02
2018-08-17T03:18:58.654Z,17.94
2018-08-17T03:21:10.831Z,17.94
2018-08-17T03:23:23.072Z,17.95
2018-08-17T03:25:35.229Z,17.98
2018-08-17T03:27:47.431Z,18.02
2018-08-17T03:29:59.610Z,18.03
2018-08-17T03:32:11.783Z,17.98
2018-08-17T03:34:23.979Z,17.97
2018-08-17T03:36:36.201Z,18.02
2018-08-17T03:38:48.390Z,18.05
2018-08-17T03:41:00.574Z,18.04
2018-08-17T03:43:12.757Z,18.04
2018-08-17T03:45:24.943Z,18.04
2018-08-17T03:47:37.120Z,18.03
2018-08-17T03:49:49.361Z,18.02
2018-08-17T03:52:01.622Z,18.04
2018-08-17T03:54:14.531Z,18.06
2018-08-17T03:56:26.702Z,18.06
2018-08-17T03:58:38.925Z,18.06
2018-08-17T04:00:51.096Z,18.04
2018-08-17T04:03:03.331Z,18.06
2018-08-17T04:05:15.615Z,18.06
2018-08-17T04:07:27.822Z,18.05
2018-08-17T04:09:39.998Z,18.04
2018-08-17T04:11:52.176Z,17.99
2018-08-17T04:14:04.434Z,17.99
2018-08-17T04:16:16.638Z,18.03
2018-08-17T04:18:28.851Z,18.07
2018-08-17T04:20:43.097Z,18.11
2018-08-17T04:22:55.282Z,18.17
2018-08-17T04:25:07.525Z,18.21
2018-08-17T04:27:19.697Z,18.18
2018-08-17T04:29:31.900Z,18.11
2018-08-17T04:31:44.090Z,18.10
2018-08-17T04:33:56.287Z,18.09
2018-08-17T04:36:08.531Z,18.16
2018-08-17T04:38:20.710Z,18.22
2018-08-17T04:40:32.914Z,18.25
2018-08-17T04:42:45.107Z,18.28
2018-08-17T04:44:57.354Z,18.29
2018-08-17T04:47:09.568Z,18.29
2018-08-17T04:49:21.793Z,18.34
2018-08-17T04:51:33.950Z,18.43
2018-08-17T04:53:46.154Z,18.50
2018-08-17T04:55:58.362Z,18.59
2018-08-17T04:58:10.572Z,18.65
2018-08-17T05:00:22.741Z,18.73
2018-08-17T05:02:35.194Z,18.78
2018-08-17T05:04:47.406Z,18.88
2018-08-17T05:06:59.618Z,18.98
2018-08-17T05:09:11.812Z,19.10
2018-08-17T05:11:24.032Z,19.17
2018-08-17T05:13:36.254Z,19.21
2018-08-17T05:15:48.460Z,19.25
2018-08-17T05:18:00.668Z,19.31
2018-08-17T05:20:12.850Z,19.36
2018-08-17T05:22:25.027Z,19.43
2018-08-17T05:24:37.251Z,19.51
2018-08-17T05:26:49.430Z,19.54
2018-08-17T05:29:01.646Z,19.60
2018-08-17T05:31:13.810Z,19.69
2018-08-17T05:33:26.287Z,19.77
2018-08-17T05:35:38.514Z,19.88
2018-08-17T05:37:50.682Z,20.02
2018-08-17T05:40:03.164Z,20.18
2018-08-17T05:42:15.340Z,20.33
2018-08-17T05:44:27.602Z,20.45
2018-08-17T05:46:39.830Z,20.54
2018-08-17T05:48:52.009Z,20.65
2018-08-17T05:51:04.906Z,20.73
2018-08-17T05:53:17.063Z,20.80
2018-08-17T05:55:31.289Z,20.85
2018-08-17T05:57:43.483Z,20.99
2018-08-17T05:59:55.727Z,21.15
2018-08-17T06:02:08.087Z,21.28
2018-08-17T06:04:20.330Z,21.37
2018-08-17T06:06:32.555Z,21.45
2018-08-17T06:08:44.803Z,21.50
2018-08-17T06:10:57.032Z,21.57
2018-08-17T06:13:09.195Z,21.76
2018-08-17T06:15:21.409Z,22.12
2018-08-17T06:17:34.269Z,22.53
2018-08-17T06:19:46.436Z,22.92
2018-08-17T06:21:59.332Z,23.25
2018-08-17T06:24:11.519Z,23.50
2018-08-17T06:26:24.403Z,23.71
2018-08-17T06:28:37.571Z,23.99
2018-08-17T06:30:49.820Z,24.28
2018-08-17T06:33:02.045Z,24.57
2018-08-17T06:35:14.489Z,24.82
2018-08-17T06:37:26.762Z,25.12
2018-08-17T06:39:38.902Z,25.16
2018-08-17T06:41:51.072Z,25.04
2018-08-17T06:44:03.453Z,24.84
2018-08-17T06:46:15.647Z,24.65
2018-08-17T06:48:27.854Z,24.54
2018-08-17T06:50:40.167Z,24.47
2018-08-17T06:52:52.285Z,24.46
2018-08-17T06:55:06.087Z,24.43
2018-08-17T06:57:18.324Z,24.42
2018-08-17T06:59:30.448Z,24.44
2018-08-17T07:01:42.707Z,24.52
2018-08-17T07:03:54.911Z,24.57
2018-08-17T07:06:07.099Z,24.70
2018-08-17T07:08:19.354Z,25.03
2018-08-17T07:10:31.526Z,25.36
2018-08-17T07:12:43.758Z,25.46
2018-08-17T07:14:55.963Z,25.47
2018-08-17T07:17:08.140Z,25.40
2018-08-17T07:19:20.327Z,25.30
2018-08-17T07:21:32.573Z,25.24
2018-08-17T07:23:44.772Z,25.23
2018-08-17T07:25:56.995Z,25.20
2018-08-17T07:28:09.200Z,25.21
2018-08-17T07:30:21.391Z,25.18
2018-08-17T07:32:33.611Z,25.25
2018-08-17T07:34:45.807Z,25.31
2018-08-17T07:36:58.042Z,25.36
2018-08-17T07:39:10.234Z,25.44
2018-08-17T07:41:22.430Z,25.46
2018-08-17T07:43:34.623Z,25.47
2018-08-17T07:45:46.880Z,25.45
2018-08-17T07:47:59.156Z,25.43
2018-08-17T07:50:19.690Z,25.41
2018-08-17T07:52:31.922Z,25.42
2018-08-17T07:54:44.132Z,25.34
2018-08-17T07:56:56.334Z,25.32
2018-08-17T07:59:08.552Z,25.31
2018-08-17T08:01:20.786Z,25.32
2018-08-17T08:03:32.975Z,25.37
2018-08-17T08:05:45.231Z,25.37
2018-08-17T08:07:57.432Z,25.42
2018-08-17T08:10:10.679Z,25.78
2018-08-17T08:12:22.956Z,26.09
2018-08-17T08:14:35.196Z,26.35
2018-08-17T08:16:47.426Z,26.47
2018-08-17T08:18:59.652Z,26.53
2018-08-17T08:21:11.875Z,26.55
2018-08-17T08:23:26.110Z,26.57
2018-08-17T08:25:38.758Z,26.95
2018-08-17T08:27:50.921Z,27.43
2018-08-17T08:30:03.431Z,27.88
2018-08-17T08:32:15.656Z,28.25
2018-08-17T08:34:27.905Z,28.67
2018-08-17T08:36:40.118Z,28.90
2018-08-17T08:38:52.306Z,28.96
2018-08-17T08:41:04.698Z,29.16
2018-08-17T08:43:16.948Z,29.40
2018-08-17T08:45:29.193Z,29.51
2018-08-17T08:47:41.354Z,29.85
2018-08-17T08:49:53.556Z,30.04
2018-08-17T08:52:06.076Z,30.26
2018-08-17T08:54:18.283Z,30.52
2018-08-17T08:56:30.520Z,30.48
2018-08-17T08:58:42.714Z,30.39
2018-08-17T09:00:54.967Z,30.44
2018-08-17T09:03:07.295Z,30.47
2018-08-17T09:05:19.479Z,30.62
2018-08-17T09:07:31.694Z,30.74
2018-08-17T09:09:44.018Z,30.98
2018-08-17T09:11:56.235Z,31.16
2018-08-17T09:14:08.512Z,31.19
2018-08-17T09:16:20.923Z,31.20
2018-08-17T09:18:33.154Z,31.26
2018-08-17T09:20:45.381Z,31.28
2018-08-17T09:22:57.630Z,31.28
2018-08-17T09:25:09.929Z,31.33
2018-08-17T09:27:22.191Z,31.35
2018-08-17T09:29:34.437Z,31.39
2018-08-17T09:31:46.687Z,31.52
2018-08-17T09:33:58.970Z,31.59
2018-08-17T09:36:11.182Z,31.67
2018-08-17T09:38:23.391Z,31.76
2018-08-17T09:40:35.618Z,31.79
2018-08-17T09:42:47.839Z,31.93
2018-08-17T09:45:00.037Z,31.92
2018-08-17T09:47:12.273Z,31.87
2018-08-17T09:49:24.623Z,31.91
2018-08-17T09:51:37.119Z,31.92
2018-08-17T09:53:49.305Z,31.93
2018-08-17T09:56:01.685Z,32.00
2018-08-17T09:58:13.870Z,32.07
2018-08-17T10:00:31.802Z,32.10
2018-08-17T10:02:49.749Z,32.15
2018-08-17T10:05:07.522Z,32.24
2018-08-17T10:07:25.385Z,32.32
2018-08-17T10:09:43.318Z,32.48
2018-08-17T10:11:55.538Z,32.52
2018-08-17T10:14:07.750Z,32.53
2018-08-17T10:16:19.941Z,32.57
2018-08-17T10:18:40.739Z,32.60
2018-08-17T10:20:53.030Z,32.67
2018-08-17T10:23:12.400Z,32.62
2018-08-17T10:25:25.362Z,32.76
2018-08-17T10:27:37.573Z,32.85
2018-08-17T10:29:49.767Z,32.90
2018-08-17T10:32:01.979Z,32.89
2018-08-17T10:34:14.199Z,32.77
2018-08-17T10:36:26.391Z,32.73
2018-08-17T10:38:38.606Z,32.79
2018-08-17T10:40:50.890Z,32.99
2018-08-17T10:43:04.500Z,33.01
2018-08-17T10:45:17.179Z,32.98
2018-08-17T10:47:29.432Z,32.94
2018-08-17T10:49:41.612Z,32.94
2018-08-17T10:51:56.022Z,33.03
2018-08-17T10:54:08.258Z,33.12
2018-08-17T10:56:20.559Z,33.07
2018-08-17T10:58:33.302Z,33.16
2018-08-17T11:00:45.575Z,33.24
2018-08-17T11:02:57.810Z,33.27
2018-08-17T11:05:10.451Z,33.30
2018-08-17T11:07:29.235Z,33.26
2018-08-17T11:09:41.498Z,33.25
2018-08-17T11:11:53.716Z,33.21
2018-08-17T11:14:05.934Z,33.25
2018-08-17T11:16:18.175Z,33.20
2018-08-17T11:18:30.462Z,33.25
2018-08-17T11:20:42.695Z,33.20
2018-08-17T11:22:54.897Z,33.10
2018-08-17T11:25:07.750Z,33.09
2018-08-17T11:27:19.967Z,33.17
2018-08-17T11:29:32.208Z,33.12
2018-08-17T11:31:44.403Z,33.10
2018-08-17T11:33:56.646Z,33.14
2018-08-17T11:36:08.867Z,33.14
2018-08-17T11:38:21.092Z,33.19
2018-08-17T11:40:33.304Z,33.13
2018-08-17T11:42:46.847Z,33.17
2018-08-17T11:44:59.098Z,33.16
2018-08-17T11:47:11.323Z,33.07
2018-08-17T11:49:24.170Z,33.00
2018-08-17T11:51:38.753Z,33.00
2018-08-17T11:53:50.987Z,33.00
2018-08-17T11:56:03.226Z,32.97
2018-08-17T11:58:15.400Z,32.95
2018-08-17T12:00:34.065Z,32.94
2018-08-17T12:02:46.595Z,32.80
2018-08-17T12:04:58.805Z,32.62
2018-08-17T12:07:11.093Z,32.39
2018-08-17T12:09:23.603Z,32.06
2018-08-17T12:11:35.796Z,31.74
2018-08-17T12:13:48.012Z,31.53
2018-08-17T12:16:00.223Z,31.40
2018-08-17T12:18:12.668Z,31.27
2018-08-17T12:20:24.874Z,31.14
2018-08-17T12:22:37.119Z,31.09
2018-08-17T12:24:49.339Z,31.11
2018-08-17T12:27:01.562Z,31.14
2018-08-17T12:29:13.784Z,31.11
2018-08-17T12:31:25.978Z,31.06
2018-08-17T12:33:38.244Z,31.04
2018-08-17T12:35:50.461Z,30.97
2018-08-17T12:38:08.337Z,31.04
2018-08-17T12:40:20.623Z,31.13
2018-08-17T12:42:34.888Z,31.26
2018-08-17T12:44:47.339Z,31.44
2018-08-17T12:46:59.563Z,31.57
2018-08-17T12:49:11.790Z,31.65
2018-08-17T12:51:23.994Z,31.80
2018-08-17T12:53:36.205Z,31.85
2018-08-17T12:55:48.429Z,31.87
2018-08-17T12:58:00.691Z,31.80
2018-08-17T13:00:12.850Z,31.63
2018-08-17T13:02:25.115Z,31.58
2018-08-17T13:04:37.331Z,31.52
2018-08-17T13:06:49.734Z,31.45
2018-08-17T13:09:02.041Z,31.38
2018-08-17T13:11:14.267Z,31.30
2018-08-17T13:13:26.568Z,31.25
2018-08-17T13:15:44.640Z,31.15
2018-08-17T13:17:56.895Z,31.05
2018-08-17T13:20:09.093Z,30.98
2018-08-17T13:22:21.298Z,30.91
2018-08-17T13:24:33.540Z,30.80
2018-08-17T13:26:46.291Z,30.66
2018-08-17T13:28:58.494Z,30.56
2018-08-17T13:31:10.704Z,30.59
2018-08-17T13:33:22.894Z,30.67
2018-08-17T13:35:35.169Z,30.70
2018-08-17T13:37:47.400Z,30.68
2018-08-17T13:39:59.648Z,30.73
2018-08-17T13:42:11.856Z,30.74
2018-08-17T13:44:24.109Z,30.79
2018-08-17T13:46:36.367Z,30.88
2018-08-17T13:48:48.700Z,30.96
2018-08-17T13:51:00.933Z,31.05
2018-08-17T13:53:13.171Z,31.14
2018-08-17T13:55:25.456Z,31.26
2018-08-17T13:57:37.587Z,31.39
2018-08-17T13:59:49.907Z,31.51
2018-08-17T14:02:02.182Z,31.61
2018-08-17T14:04:14.403Z,31.62
2018-08-17T14:06:26.654Z,31.64
2018-08-17T14:08:38.890Z,31.64
2018-08-17T14:10:51.111Z,31.59
2018-08-17T14:13:03.310Z,31.56
2018-08-17T14:15:15.549Z,31.58
2018-08-17T14:17:27.781Z,31.56
2018-08-17T14:19:40.010Z,31.61
2018-08-17T14:21:52.291Z,31.61
2018-08-17T14:24:04.631Z,31.57
2018-08-17T14:26:16.838Z,31.57
2018-08-17T14:28:29.130Z,31.58
2018-08-17T14:30:41.360Z,31.56
2018-08-17T14:32:53.560Z,31.47
2018-08-17T14:35:05.943Z,31.53
2018-08-17T14:37:18.151Z,31.50
2018-08-17T14:39:30.338Z,31.46
2018-08-17T14:41:58.025Z,31.41
2018-08-17T14:44:10.227Z,31.35
2018-08-17T14:46:22.447Z,31.32
2018-08-17T14:48:34.691Z,31.26
2018-08-17T14:50:46.986Z,31.19
2018-08-17T14:52:59.266Z,31.13
2018-08-17T14:55:11.899Z,31.03
2018-08-17T14:57:24.122Z,30.92
2018-08-17T14:59:36.385Z,30.85
2018-08-17T15:01:48.675Z,30.82
2018-08-17T15:04:00.894Z,30.82
2018-08-17T15:06:13.086Z,30.80
2018-08-17T15:08:25.335Z,30.74
2018-08-17T15:10:37.530Z,30.71
2018-08-17T15:12:49.828Z,30.68
2018-08-17T15:15:01.997Z,30.65
2018-08-17T15:17:14.214Z,30.65
2018-08-17T15:19:26.499Z,30.66
2018-08-17T15:21:39.087Z,30.61
2018-08-17T15:23:51.355Z,30.65
2018-08-17T15:26:03.613Z,30.61
2018-08-17T15:28:15.834Z,30.60
2018-08-17T15:30:28.155Z,30.59
2018-08-17T15:32:41.244Z,30.56
2018-08-17T15:34:53.443Z,30.50
2018-08-17T15:37:05.665Z,30.45
2018-08-17T15:39:17.897Z,30.50
2018-08-17T15:41:30.153Z,30.51
2018-08-17T15:43:42.355Z,30.47
2018-08-17T15:45:54.601Z,30.48
2018-08-17T15:48:06.832Z,30.51
2018-08-17T15:50:20.256Z,30.53
2018-08-17T15:52:32.504Z,30.52
2018-08-17T15:54:44.715Z,30.46
2018-08-17T15:56:57.170Z,30.40
2018-08-17T15:59:09.401Z,30.26
2018-08-17T16:01:21.708Z,30.11
2018-08-17T16:03:33.874Z,30.05
2018-08-17T16:05:46.110Z,30.07
2018-08-17T16:07:58.340Z,30.03
2018-08-17T16:10:12.704Z,30.02
2018-08-17T16:12:24.887Z,29.94
2018-08-17T16:14:37.111Z,29.85
2018-08-17T16:16:49.274Z,29.78
2018-08-17T16:19:02.344Z,29.71
2018-08-17T16:21:14.515Z,29.57
2018-08-17T16:23:26.773Z,29.55
2018-08-17T16:25:39.051Z,29.52
2018-08-17T16:27:51.317Z,29.52
2018-08-17T16:30:04.531Z,29.53
2018-08-17T16:32:16.742Z,29.45
2018-08-17T16:34:28.973Z,29.38
2018-08-17T16:36:42.259Z,29.29
2018-08-17T16:38:54.496Z,29.24
2018-08-17T16:41:06.719Z,29.15
2018-08-17T16:43:53.199Z,29.17
2018-08-17T16:46:05.399Z,29.11
2018-08-17T16:48:17.583Z,29.07
2018-08-17T16:50:29.835Z,29.09
2018-08-17T16:52:42.132Z,29.10
2018-08-17T16:54:54.377Z,29.09
2018-08-17T16:57:06.595Z,29.01
2018-08-17T16:59:18.795Z,29.00
2018-08-17T17:01:31.379Z,28.95
2018-08-17T17:03:43.687Z,28.91
2018-08-17T17:06:00.528Z,28.87
2018-08-17T17:08:12.786Z,28.76
2018-08-17T17:10:29.404Z,28.71
2018-08-17T17:12:41.688Z,28.66
2018-08-17T17:15:00.488Z,28.59
2018-08-17T17:17:12.915Z,28.60
2018-08-17T17:19:25.149Z,28.56
2018-08-17T17:21:40.259Z,28.52
2018-08-17T17:23:58.865Z,28.50
2018-08-17T17:26:11.720Z,28.40
2018-08-17T17:28:28.580Z,28.40
2018-08-17T17:30:46.600Z,28.36
2018-08-17T17:32:58.923Z,28.32
2018-08-17T17:35:11.180Z,28.27
2018-08-17T17:37:23.407Z,28.26
2018-08-17T17:39:35.666Z,28.24
2018-08-17T17:41:47.908Z,28.18
2018-08-17T17:44:00.200Z,28.07
2018-08-17T17:46:12.491Z,28.02
2018-08-17T17:48:24.717Z,27.92
2018-08-17T17:50:36.994Z,27.84
2018-08-17T17:52:49.249Z,27.79
2018-08-17T17:55:01.482Z,27.77
2018-08-17T17:57:13.734Z,27.75
2018-08-17T17:59:26.067Z,27.74
2018-08-17T18:01:38.327Z,27.71
2018-08-17T18:03:50.558Z,27.65
2018-08-17T18:06:07.832Z,27.64
2018-08-17T18:08:20.106Z,27.62
2018-08-17T18:10:32.651Z,27.60
2018-08-17T18:12:45.048Z,27.55
2018-08-17T18:14:57.331Z,27.48
2018-08-17T18:17:09.964Z,27.44
2018-08-17T18:19:22.373Z,27.38
2018-08-17T18:21:34.698Z,27.37
2018-08-17T18:23:55.950Z,27.38
2018-08-17T18:26:09.782Z,27.39
2018-08-17T18:28:22.095Z,27.40
2018-08-17T18:30:34.438Z,27.30
2018-08-17T18:32:46.700Z,27.28
2018-08-17T18:34:59.020Z,27.22
2018-08-17T18:37:11.260Z,27.15
2018-08-17T18:39:23.536Z,27.07
2018-08-17T18:41:35.854Z,27.06
2018-08-17T18:43:48.119Z,27.08
2018-08-17T18:46:00.354Z,27.08
2018-08-17T18:48:12.670Z,27.07
2018-08-17T18:50:24.965Z,27.04
2018-08-17T18:52:37.285Z,26.94
2018-08-17T18:54:49.540Z,26.90
2018-08-17T18:57:01.796Z,26.87
2018-08-17T18:59:14.137Z,26.84
2018-08-17T19:01:26.406Z,26.80
2018-08-17T19:03:38.696Z,26.76
2018-08-17T19:05:50.948Z,26.73
2018-08-17T19:08:03.231Z,26.70
2018-08-17T19:10:15.499Z,26.62
2018-08-17T19:12:27.717Z,26.60
2018-08-17T19:14:44.319Z,26.53
2018-08-17T19:16:56.546Z,26.49
2018-08-17T19:19:08.853Z,26.48
2018-08-17T19:21:21.174Z,26.42
2018-08-17T19:23:33.675Z,26.42
2018-08-17T19:25:45.901Z,26.38
2018-08-17T19:27:58.133Z,26.35
2018-08-17T19:30:22.136Z,26.28
2018-08-17T19:32:34.332Z,26.27
2018-08-17T19:34:46.548Z,26.20
2018-08-17T19:36:59.093Z,26.12
2018-08-17T19:39:19.554Z,26.09
2018-08-17T19:41:31.797Z,26.08
2018-08-17T19:43:44.021Z,26.03
2018-08-17T19:45:56.299Z,25.95
2018-08-17T19:48:08.455Z,25.92
2018-08-17T19:50:20.751Z,25.92
2018-08-17T19:52:33.016Z,25.83
2018-08-17T19:54:45.212Z,25.83
2018-08-17T19:56:57.457Z,25.79
2018-08-17T19:59:09.686Z,25.79
2018-08-17T20:01:21.923Z,25.79
2018-08-17T20:03:34.153Z,25.71
2018-08-17T20:05:46.384Z,25.67
2018-08-17T20:07:58.641Z,25.62
2018-08-17T20:10:12.208Z,25.58
2018-08-17T20:12:24.443Z,25.57
2018-08-17T20:14:36.674Z,25.53
2018-08-17T20:16:48.929Z,25.46
2018-08-17T20:19:01.748Z,25.45
2018-08-17T20:21:13.974Z,25.42
2018-08-17T20:23:26.224Z,25.32
2018-08-17T20:25:38.544Z,25.31
2018-08-17T20:27:50.726Z,25.28
2018-08-17T20:30:08.623Z,25.25
2018-08-17T20:32:20.831Z,25.18
2018-08-17T20:34:34.558Z,25.19
2018-08-17T20:36:46.827Z,25.12
2018-08-17T20:38:59.247Z,25.07
2018-08-17T20:41:11.496Z,25.01
2018-08-17T20:43:23.752Z,25.01
2018-08-17T20:45:36.543Z,24.92
2018-08-17T20:47:49.616Z,24.90
2018-08-17T20:50:01.837Z,24.84
2018-08-17T20:52:14.048Z,24.80
2018-08-17T20:54:27.722Z,24.77
2018-08-17T20:56:39.940Z,24.73
2018-08-17T20:58:52.914Z,24.71
2018-08-17T21:01:06.011Z,24.66
2018-08-17T21:03:19.175Z,24.66
2018-08-17T21:05:32.461Z,24.64
2018-08-17T21:07:45.451Z,24.57
2018-08-17T21:09:57.734Z,24.54
2018-08-17T21:12:09.951Z,24.55
2018-08-17T21:14:22.214Z,24.56
2018-08-17T21:16:35.420Z,24.52
2018-08-17T21:18:47.654Z,24.52
2018-08-17T21:20:59.910Z,24.54
2018-08-17T21:23:12.135Z,24.54
2018-08-17T21:25:24.354Z,24.58
2018-08-17T21:27:36.546Z,24.52
2018-08-17T21:29:48.799Z,24.50
2018-08-17T21:32:01.067Z,24.48
2018-08-17T21:34:13.319Z,24.48
2018-08-17T21:36:26.415Z,24.48
2018-08-17T21:38:39.927Z,24.49
2018-08-17T21:40:52.844Z,24.43
2018-08-17T21:43:05.014Z,24.38
2018-08-17T21:45:19.359Z,24.40
2018-08-17T21:47:31.547Z,24.27
2018-08-17T21:49:43.778Z,24.02
2018-08-17T21:51:58.588Z,24.04
2018-08-17T21:54:10.809Z,24.05
2018-08-17T21:56:23.103Z,23.97
2018-08-17T21:58:35.316Z,23.89
2018-08-17T22:00:47.583Z,23.83
2018-08-17T22:02:59.932Z,23.80
2018-08-17T22:05:16.757Z,23.79
2018-08-17T22:07:30.755Z,23.71
2018-08-17T22:09:42.997Z,23.63
2018-08-17T22:11:55.196Z,23.48
2018-08-17T22:14:07.466Z,23.33
2018-08-17T22:16:19.666Z,23.24
2018-08-17T22:18:32.600Z,23.13
2018-08-17T22:20:44.745Z,23.01
2018-08-17T22:22:58.074Z,22.89
2018-08-17T22:25:13.138Z,22.80
2018-08-17T22:27:26.546Z,22.84
2018-08-17T22:29:38.779Z,22.84
2018-08-17T22:31:50.919Z,22.76
2018-08-17T22:34:03.200Z,22.70
2018-08-17T22:36:20.471Z,22.65
2018-08-17T22:38:37.230Z,22.65
2018-08-17T22:40:49.452Z,22.62
2018-08-17T22:43:01.675Z,22.66
2018-08-17T22:45:13.885Z,22.63
2018-08-17T22:47:27.792Z,22.61
2018-08-17T22:49:40.010Z,22.58
2018-08-17T22:51:52.170Z,22.51
2018-08-17T22:54:04.390Z,22.45
2018-08-17T22:56:16.903Z,22.38
2018-08-17T22:58:33.652Z,22.36
2018-08-17T23:00:46.329Z,22.42
2018-08-17T23:02:59.946Z,22.42
2018-08-17T23:05:14.014Z,22.38
2018-08-17T23:07:26.203Z,22.35
2018-08-17T23:09:38.391Z,22.31
2018-08-17T23:11:50.595Z,22.25
2018-08-17T23:14:08.674Z,22.23
2018-08-17T23:16:21.457Z,22.23
2018-08-17T23:18:33.654Z,22.25
2018-08-17T23:20:45.898Z,22.20
2018-08-17T23:22:59.343Z,22.18
2018-08-17T23:25:11.585Z,22.21
2018-08-17T23:27:23.799Z,22.12
2018-08-17T23:29:35.995Z,22.10
2018-08-17T23:31:48.227Z,22.12
2018-08-17T23:34:00.430Z,22.12
2018-08-17T23:36:12.630Z,22.09
2018-08-17T23:38:24.816Z,22.00
2018-08-17T23:40:37.026Z,21.99
2018-08-17T23:42:49.274Z,21.94
2018-08-17T23:45:01.850Z,21.94
2018-08-17T23:47:14.066Z,21.89
2018-08-17T23:49:26.305Z,21.89
2018-08-17T23:51:38.522Z,21.86
2018-08-17T23:53:50.738Z,21.84
2018-08-17T23:56:02.991Z,21.76
2018-08-17T23:58:15.215Z,21.76
